Time;durP1;ratioP1;P1;durP2;ratioP2;P2;SDS_P1;SDS_P2;PMS_P1;PMS_P2;Temp;Humidity;BMP_temperature;BMP_pressure;BME280_temperature;BME280_humidity;BME280_pressure;Samples;Min_cycle;Max_cycle;Signal;HPM_P1;HPM_P2
2022/08/01 00:04:32;;;;;;;0.40;0.20;;;23.10;99.90;;;;;;10286583;28;20077;-60
2022/08/01 00:09:33;;;;;;;0.57;0.20;;;23.00;99.90;;;;;;10303853;28;20512;-60
2022/08/01 00:14:35;;;;;;;3.30;0.20;;;22.90;99.90;;;;;;10297287;28;20043;-60
2022/08/01 00:19:37;;;;;;;0.30;0.20;;;22.80;99.90;;;;;;10296660;28;20066;-60
2022/08/01 00:24:38;;;;;;;0.65;0.20;;;22.80;99.90;;;;;;10301897;28;20047;-59
2022/08/01 00:29:40;;;;;;;0.70;0.10;;;22.70;99.90;;;;;;10274870;28;20050;-60
2022/08/01 00:35:02;;;;;;;1.67;0.20;;;22.70;99.90;;;;;;10287037;28;20148;-60
2022/08/01 00:40:05;;;;;;;1.45;0.20;;;22.60;99.90;;;;;;10314036;28;20144;-61
2022/08/01 00:45:08;;;;;;;0.35;0.20;;;22.50;99.90;;;;;;10285749;28;20093;-60
2022/08/01 00:50:10;;;;;;;1.05;0.20;;;22.40;99.90;;;;;;10305296;28;20105;-60
2022/08/01 00:55:12;;;;;;;0.30;0.15;;;22.30;99.90;;;;;;10281302;28;20116;-60
2022/08/01 01:00:16;;;;;;;0.90;0.30;;;22.30;99.90;;;;;;10296737;28;20058;-59
2022/08/01 01:05:17;;;;;;;0.22;0.20;;;22.20;99.90;;;;;;10289339;28;20050;-60
2022/08/01 01:10:47;;;;;;;1.85;0.20;;;22.20;99.90;;;;;;10277362;28;20043;-60
2022/08/01 01:16:04;;;;;;;0.93;0.20;;;22.10;99.90;;;;;;10279578;28;20059;-60
2022/08/01 01:21:16;;;;;;;0.98;0.10;;;22.10;99.90;;;;;;10275202;28;20105;-60
2022/08/01 01:26:52;;;;;;;1.48;0.40;;;22.00;99.90;;;;;;10286247;28;20101;-60
2022/08/01 01:32:27;;;;;;;0.40;0.20;;;21.90;99.90;;;;;;10284703;28;20102;-59
2022/08/01 01:37:33;;;;;;;0.30;0.20;;;21.90;99.90;;;;;;10265048;28;20054;-60
2022/08/01 01:42:37;;;;;;;1.77;0.30;;;21.90;99.90;;;;;;10284462;28;20513;-60
2022/08/01 01:47:40;;;;;;;0.30;0.20;;;21.80;99.90;;;;;;10286743;28;20057;-60
2022/08/01 01:52:45;;;;;;;1.48;0.20;;;21.80;99.90;;;;;;10279175;28;20061;-60
2022/08/01 01:57:48;;;;;;;1.63;0.20;;;21.80;99.90;;;;;;10281124;28;20121;-60
2022/08/01 02:02:51;;;;;;;0.40;0.20;;;21.70;99.90;;;;;;10293855;28;20128;-60
2022/08/01 02:07:54;;;;;;;0.40;0.20;;;21.60;99.90;;;;;;10283467;28;20061;-59
2022/08/01 02:13:03;;;;;;;0.77;0.30;;;21.60;99.90;;;;;;10292184;28;20061;-59
2022/08/01 02:18:07;;;;;;;1.65;0.20;;;21.60;99.90;;;;;;10301631;28;20061;-58
2022/08/01 02:23:12;;;;;;;0.50;0.20;;;21.50;99.90;;;;;;10297385;28;20080;-59
2022/08/01 02:28:27;;;;;;;0.30;0.28;;;21.40;99.90;;;;;;10277180;28;20093;-58
2022/08/01 02:33:38;;;;;;;0.57;0.30;;;21.50;99.90;;;;;;10277756;28;20051;-59
2022/08/01 02:38:43;;;;;;;0.60;0.20;;;21.50;99.90;;;;;;10276395;28;20050;-59
2022/08/01 02:43:48;;;;;;;0.80;0.50;;;21.50;99.90;;;;;;10294135;28;20054;-59
2022/08/01 02:48:58;;;;;;;1.50;0.40;;;21.50;99.90;;;;;;10283076;28;20057;-59
2022/08/01 02:54:02;;;;;;;1.87;0.30;;;21.50;99.90;;;;;;10267387;28;20042;-59
2022/08/01 02:59:12;;;;;;;0.40;0.20;;;21.50;99.90;;;;;;10305472;28;20561;-59
2022/08/01 03:04:17;;;;;;;1.25;0.20;;;21.40;99.90;;;;;;10279943;28;20150;-60
2022/08/01 03:09:19;;;;;;;0.77;0.30;;;21.40;99.90;;;;;;10284830;28;20053;-60
2022/08/01 03:14:23;;;;;;;0.82;0.57;;;21.40;99.90;;;;;;10292302;28;20058;-60
2022/08/01 03:19:27;;;;;;;1.77;0.20;;;21.40;99.90;;;;;;10273267;28;20038;-60
2022/08/01 03:24:30;;;;;;;2.85;0.30;;;21.40;99.90;;;;;;10293020;28;20050;-60
2022/08/01 03:29:33;;;;;;;0.50;0.30;;;21.40;99.90;;;;;;10311133;28;20061;-61
2022/08/01 03:34:35;;;;;;;0.93;0.30;;;21.40;99.90;;;;;;10275191;28;20065;-60
2022/08/01 03:40:02;;;;;;;0.55;0.30;;;21.40;99.90;;;;;;10305485;28;20047;-61
2022/08/01 03:45:10;;;;;;;1.55;0.40;;;21.50;99.90;;;;;;10303012;28;20079;-59
2022/08/01 03:50:16;;;;;;;0.73;0.20;;;21.40;99.90;;;;;;10289516;28;20477;-60
2022/08/01 03:55:20;;;;;;;1.17;0.40;;;21.40;99.90;;;;;;10308038;28;20105;-65
2022/08/01 04:00:22;;;;;;;2.40;0.30;;;21.40;99.90;;;;;;10279950;28;20396;-65
2022/08/01 04:05:25;;;;;;;1.58;0.30;;;21.40;99.90;;;;;;10281761;28;20053;-65
2022/08/01 04:10:26;;;;;;;1.00;0.40;;;21.40;99.90;;;;;;10292096;28;20069;-65
2022/08/01 04:15:28;;;;;;;0.73;0.30;;;21.30;99.90;;;;;;10292153;28;20047;-65
2022/08/01 04:20:30;;;;;;;1.08;0.25;;;21.20;99.90;;;;;;10290457;28;20050;-65
2022/08/01 04:25:34;;;;;;;1.65;0.40;;;21.20;99.90;;;;;;10300598;28;20050;-65
2022/08/01 04:30:37;;;;;;;4.53;0.32;;;21.20;99.90;;;;;;10300964;28;20050;-66
2022/08/01 04:35:45;;;;;;;1.95;0.40;;;21.30;99.90;;;;;;10300838;28;20050;-66
2022/08/01 04:41:07;;;;;;;0.63;0.30;;;21.40;99.90;;;;;;10295568;28;20113;-65
2022/08/01 04:46:11;;;;;;;3.78;0.40;;;21.40;99.90;;;;;;10309343;28;20050;-63
2022/08/01 04:51:17;;;;;;;1.23;0.40;;;21.50;99.90;;;;;;10307771;28;20058;-63
2022/08/01 04:56:20;;;;;;;0.67;0.20;;;21.30;99.90;;;;;;10278388;28;20517;-64
2022/08/01 05:01:22;;;;;;;0.55;0.30;;;21.40;99.90;;;;;;10279768;28;20038;-65
2022/08/01 05:06:23;;;;;;;1.02;0.30;;;21.30;99.90;;;;;;10289402;28;20046;-63
2022/08/01 05:11:25;;;;;;;0.40;0.20;;;21.40;99.90;;;;;;10282663;28;20062;-64
2022/08/01 05:16:27;;;;;;;1.35;0.38;;;21.40;99.90;;;;;;10290948;28;20104;-64
2022/08/01 05:21:29;;;;;;;2.58;0.30;;;21.40;99.90;;;;;;10289759;28;20049;-64
2022/08/01 05:26:30;;;;;;;0.82;0.40;;;21.40;99.90;;;;;;10310667;28;20109;-64
2022/08/01 05:31:34;;;;;;;1.17;0.40;;;21.40;99.90;;;;;;10302102;28;20385;-64
2022/08/01 05:36:37;;;;;;;6.78;0.30;;;21.50;99.90;;;;;;10268646;28;20049;-64
2022/08/01 05:41:39;;;;;;;1.30;0.60;;;21.50;99.90;;;;;;10272072;28;20062;-64
2022/08/01 05:46:41;;;;;;;1.05;0.25;;;21.40;99.90;;;;;;10272544;28;20411;-64
2022/08/01 05:51:43;;;;;;;2.15;0.30;;;21.50;99.90;;;;;;10280536;28;20064;-64
2022/08/01 05:56:45;;;;;;;4.10;0.40;;;21.50;99.90;;;;;;10281797;28;20058;-63
2022/08/01 06:01:46;;;;;;;1.35;0.85;;;21.60;99.90;;;;;;10295851;28;20056;-64
2022/08/01 06:06:48;;;;;;;0.45;0.30;;;21.60;99.90;;;;;;10293359;28;20050;-65
2022/08/01 06:11:50;;;;;;;1.83;0.30;;;21.70;99.90;;;;;;10292464;28;20047;-66
2022/08/01 06:16:52;;;;;;;1.30;0.40;;;21.80;99.90;;;;;;10279693;28;20059;-66
2022/08/01 06:21:54;;;;;;;0.75;0.43;;;21.90;99.90;;;;;;10294702;28;20077;-65
2022/08/01 06:26:55;;;;;;;0.70;0.40;;;21.90;99.90;;;;;;10292880;28;20125;-66
2022/08/01 06:31:57;;;;;;;1.55;0.60;;;22.00;99.90;;;;;;10294209;28;20060;-65
2022/08/01 06:36:59;;;;;;;1.25;0.30;;;21.90;99.90;;;;;;10293122;28;20055;-64
2022/08/01 06:42:06;;;;;;;2.40;0.80;;;22.10;99.90;;;;;;10298893;28;20568;-64
2022/08/01 06:47:08;;;;;;;2.80;0.50;;;22.20;99.90;;;;;;10282070;28;20509;-64
2022/08/01 06:52:10;;;;;;;3.38;0.57;;;22.30;99.90;;;;;;10297657;28;20063;-64
2022/08/01 06:57:12;;;;;;;1.63;0.80;;;22.30;99.90;;;;;;10277422;28;20042;-65
2022/08/01 07:02:13;;;;;;;1.15;0.95;;;22.40;99.90;;;;;;10288321;28;20553;-66
2022/08/01 07:07:16;;;;;;;1.85;1.20;;;22.40;99.90;;;;;;10282013;28;20057;-65
2022/08/01 07:12:18;;;;;;;2.00;1.00;;;22.60;99.90;;;;;;10297488;28;20044;-65
2022/08/01 07:17:20;;;;;;;3.45;1.00;;;22.90;99.90;;;;;;10309415;28;20045;-66
2022/08/01 07:22:22;;;;;;;1.40;1.00;;;22.90;99.90;;;;;;10281267;28;20047;-66
2022/08/01 07:27:24;;;;;;;1.83;1.20;;;22.90;99.90;;;;;;10296975;28;20102;-66
2022/08/01 07:32:28;;;;;;;3.00;1.90;;;22.90;99.90;;;;;;10300361;28;20049;-65
2022/08/01 07:37:30;;;;;;;2.03;1.00;;;23.10;99.90;;;;;;10305656;28;20113;-65
2022/08/01 07:42:49;;;;;;;3.38;1.48;;;23.20;99.90;;;;;;10285208;28;20074;-66
2022/08/01 07:47:51;;;;;;;1.85;0.90;;;23.40;99.90;;;;;;10288079;28;20054;-65
2022/08/01 07:52:53;;;;;;;2.13;1.27;;;23.70;99.90;;;;;;10291486;28;20065;-65
2022/08/01 07:57:55;;;;;;;2.50;1.50;;;23.50;99.90;;;;;;10292064;28;20058;-66
2022/08/01 08:02:59;;;;;;;1.40;0.90;;;23.60;99.90;;;;;;10301471;28;20406;-65
2022/08/01 08:08:05;;;;;;;2.47;1.20;;;23.90;99.90;;;;;;10292751;28;20046;-66
2022/08/01 08:13:06;;;;;;;;;;;24.00;99.90;;;;;;10298774;28;20571;-65
2022/08/01 08:18:09;;;;;;;1.25;0.88;;;24.20;99.90;;;;;;10283278;28;20384;-66
2022/08/01 08:28:43;;;;;;;2.45;1.23;;;24.30;99.90;;;;;;10305999;28;20078;-66
2022/08/01 08:33:45;;;;;;;2.13;1.50;;;24.40;99.90;;;;;;10291830;28;20056;-65
2022/08/01 08:38:47;;;;;;;4.97;1.05;;;24.30;99.90;;;;;;10305587;28;20054;-66
2022/08/01 08:43:49;;;;;;;1.95;1.20;;;23.90;99.90;;;;;;10298657;28;20054;-65
2022/08/01 08:48:52;;;;;;;3.35;1.33;;;24.10;99.90;;;;;;10293991;28;20059;-66
2022/08/01 08:53:56;;;;;;;2.10;1.17;;;24.10;99.90;;;;;;10306618;28;20058;-65
2022/08/01 08:58:58;;;;;;;3.17;0.93;;;24.10;99.90;;;;;;10286335;28;20059;-65
2022/08/01 09:03:59;;;;;;;1.50;1.40;;;24.10;99.90;;;;;;10285900;28;20057;-65
2022/08/01 09:09:02;;;;;;;1.42;1.10;;;24.60;99.90;;;;;;10299654;28;20133;-65
2022/08/01 09:14:22;;;;;;;3.65;1.42;;;24.50;99.90;;;;;;10300042;28;20486;-65
2022/08/01 09:19:23;;;;;;;1.55;0.88;;;24.90;99.90;;;;;;10296408;28;20046;-65
2022/08/01 09:24:41;;;;;;;2.75;1.10;;;25.00;99.90;;;;;;10254084;28;20050;-65
2022/08/01 09:29:44;;;;;;;2.67;0.82;;;25.40;99.90;;;;;;10301954;28;22353;-64
2022/08/01 09:34:50;;;;;;;1.23;0.90;;;25.70;99.90;;;;;;10294989;28;20068;-66
2022/08/01 09:39:57;;;;;;;1.60;0.90;;;26.00;99.90;;;;;;10311129;28;20046;-65
2022/08/01 09:45:00;;;;;;;1.63;0.95;;;26.20;99.90;;;;;;10305513;28;20058;-64
2022/08/01 09:50:03;;;;;;;2.63;1.02;;;26.30;99.90;;;;;;10314941;28;20069;-64
2022/08/01 09:55:11;;;;;;;1.92;0.90;;;26.20;99.90;;;;;;10309090;28;20053;-64
2022/08/01 10:00:17;;;;;;;3.65;1.05;;;25.90;99.90;;;;;;10302615;28;20050;-63
2022/08/01 10:05:42;;;;;;;1.40;0.80;;;25.60;99.90;;;;;;10298715;28;20363;-64
2022/08/01 10:11:10;;;;;;;1.80;0.80;;;25.50;99.90;;;;;;10293466;28;20058;-64
2022/08/01 10:16:13;;;;;;;2.30;0.80;;;25.60;99.90;;;;;;10283306;28;20046;-64
2022/08/01 10:21:17;;;;;;;2.42;0.98;;;25.90;99.90;;;;;;10280741;28;20298;-64
2022/08/01 10:26:40;;;;;;;1.70;0.73;;;25.90;99.90;;;;;;10286624;28;20548;-63
2022/08/01 10:31:42;;;;;;;0.95;0.73;;;26.10;99.90;;;;;;10276399;28;20047;-63
2022/08/01 10:36:51;;;;;;;2.20;0.95;;;26.30;99.90;;;;;;10266513;28;20047;-64
2022/08/01 10:41:55;;;;;;;1.45;1.10;;;26.10;99.90;;;;;;10286786;28;20108;-64
2022/08/01 10:47:09;;;;;;;2.58;1.10;;;27.00;99.90;;;;;;10304491;28;20066;-64
2022/08/01 10:52:16;;;;;;;2.58;1.17;;;27.10;99.90;;;;;;10303053;28;20577;-64
2022/08/01 10:57:21;;;;;;;4.20;0.80;;;26.40;99.90;;;;;;10288707;28;20046;-66
2022/08/01 11:02:30;;;;;;;1.25;0.77;;;26.60;99.90;;;;;;10273328;28;20058;-64
2022/08/01 11:07:38;;;;;;;4.70;0.95;;;26.60;99.90;;;;;;10298772;28;20465;-64
2022/08/01 11:12:42;;;;;;;0.98;0.85;;;26.90;99.90;;;;;;10305123;28;20050;-64
2022/08/01 11:17:49;;;;;;;1.00;0.65;;;26.50;99.90;;;;;;10283437;28;20058;-64
2022/08/01 11:23:01;;;;;;;0.90;0.70;;;26.50;99.90;;;;;;10288450;28;20046;-65
2022/08/01 11:28:13;;;;;;;2.90;0.88;;;26.40;99.90;;;;;;10295966;28;20493;-65
2022/08/01 11:33:44;;;;;;;1.10;0.82;;;26.50;99.90;;;;;;10300092;28;20038;-65
2022/08/01 11:39:05;;;;;;;1.67;0.98;;;26.80;99.90;;;;;;10294909;28;20105;-64
2022/08/01 11:44:19;;;;;;;2.25;0.77;;;26.90;99.90;;;;;;10297029;28;20038;-65
2022/08/01 11:49:44;;;;;;;1.20;0.63;;;27.40;99.90;;;;;;10290430;28;20070;-64
2022/08/01 11:54:54;;;;;;;1.20;0.80;;;27.50;99.90;;;;;;10299142;28;20054;-64
2022/08/01 11:59:58;;;;;;;0.93;0.68;;;27.70;99.90;;;;;;10292403;28;20073;-63
2022/08/01 12:05:06;;;;;;;1.98;0.70;;;27.50;99.90;;;;;;10305787;28;20057;-64
2022/08/01 12:10:11;;;;;;;1.23;0.75;;;27.60;99.90;;;;;;10302833;28;20519;-64
2022/08/01 12:15:15;;;;;;;1.20;0.70;;;27.50;99.90;;;;;;10298895;28;20584;-64
2022/08/01 12:20:21;;;;;;;1.40;0.70;;;27.80;99.90;;;;;;10303792;28;20061;-64
2022/08/01 12:25:23;;;;;;;1.60;0.60;;;27.80;99.90;;;;;;10305978;28;20054;-64
2022/08/01 12:30:26;;;;;;;1.23;0.50;;;28.00;99.90;;;;;;10309330;28;20043;-63
2022/08/01 12:35:29;;;;;;;1.08;0.65;;;28.20;99.90;;;;;;10311647;28;20065;-63
2022/08/01 12:40:39;;;;;;;1.02;0.70;;;28.40;99.90;;;;;;10300946;28;20124;-63
2022/08/01 12:45:49;;;;;;;0.90;0.70;;;28.70;99.70;;;;;;10299859;28;20054;-63
2022/08/01 12:51:00;;;;;;;1.10;0.75;;;28.90;98.90;;;;;;10298256;28;20552;-64
2022/08/01 12:56:01;;;;;;;2.45;0.60;;;29.00;99.30;;;;;;10305136;28;20050;-65
2022/08/01 13:01:08;;;;;;;1.80;0.60;;;28.90;98.50;;;;;;10303362;28;20072;-64
2022/08/01 13:06:14;;;;;;;1.63;0.50;;;28.50;97.90;;;;;;10309263;28;20683;-65
2022/08/01 13:11:16;;;;;;;;;;;28.50;97.40;;;;;;10294460;28;20124;-64
2022/08/01 13:16:26;;;;;;;0.77;0.40;;;27.90;97.80;;;;;;10278922;28;20281;-64
2022/08/01 13:21:56;;;;;;;0.73;0.57;;;27.90;98.00;;;;;;10295825;28;20046;-64
2022/08/01 13:27:00;;;;;;;1.55;0.50;;;27.70;98.20;;;;;;10289778;28;20081;-65
2022/08/01 13:32:20;;;;;;;0.50;0.40;;;27.50;99.50;;;;;;10289600;28;20062;-64
2022/08/01 13:37:30;;;;;;;0.55;0.47;;;27.60;99.70;;;;;;10291100;28;20053;-64
2022/08/01 13:42:33;;;;;;;1.52;0.60;;;27.60;99.60;;;;;;10310903;28;20050;-64
2022/08/01 13:47:34;;;;;;;1.00;0.50;;;27.70;99.10;;;;;;10292733;28;20047;-64
2022/08/01 13:52:36;;;;;;;0.50;0.40;;;27.60;99.40;;;;;;10291264;28;20057;-64
2022/08/01 13:57:38;;;;;;;2.50;0.55;;;27.60;99.20;;;;;;10290866;28;20074;-64
2022/08/01 14:02:40;;;;;;;2.97;0.40;;;27.50;99.30;;;;;;10297467;28;20081;-64
2022/08/01 14:07:42;;;;;;;1.27;0.60;;;27.50;99.00;;;;;;10289696;28;20050;-63
2022/08/01 14:12:49;;;;;;;4.80;0.70;;;27.20;98.50;;;;;;10307197;28;20485;-64
2022/08/01 14:17:51;;;;;;;0.60;0.52;;;27.20;98.80;;;;;;10290886;28;20054;-64
2022/08/01 14:22:53;;;;;;;1.05;0.50;;;27.10;99.00;;;;;;10302704;28;20197;-64
2022/08/01 14:27:55;;;;;;;0.65;0.50;;;27.30;98.40;;;;;;10297086;28;20054;-64
2022/08/01 14:32:57;;;;;;;6.72;0.50;;;27.10;98.00;;;;;;10303547;28;20375;-64
2022/08/01 14:37:58;;;;;;;0.73;0.50;;;27.40;98.20;;;;;;10279882;28;20047;-64
2022/08/01 14:43:01;;;;;;;0.77;0.60;;;27.90;97.70;;;;;;10291172;28;20043;-64
2022/08/01 14:48:03;;;;;;;0.90;0.50;;;28.00;96.90;;;;;;10276534;28;20043;-64
2022/08/01 14:53:04;;;;;;;1.00;0.50;;;28.20;97.10;;;;;;10284105;28;20521;-64
2022/08/01 14:58:06;;;;;;;3.53;1.15;;;28.40;96.00;;;;;;10295661;28;20070;-64
2022/08/01 15:03:07;;;;;;;1.05;0.60;;;28.60;96.00;;;;;;10294408;28;20050;-64
2022/08/01 15:08:09;;;;;;;1.65;0.70;;;29.00;96.00;;;;;;10287544;28;20058;-64
2022/08/01 15:13:11;;;;;;;0.52;0.43;;;28.90;95.60;;;;;;10292422;28;20063;-63
2022/08/01 15:18:13;;;;;;;2.03;0.40;;;28.80;95.60;;;;;;10280335;28;20042;-63
2022/08/01 15:23:14;;;;;;;0.65;0.50;;;29.00;95.00;;;;;;10286600;28;20054;-65
2022/08/01 15:28:16;;;;;;;1.50;0.65;;;29.30;94.80;;;;;;10302942;28;20062;-65
2022/08/01 15:33:18;;;;;;;0.65;0.43;;;29.30;94.00;;;;;;10287003;28;20046;-65
2022/08/01 15:38:21;;;;;;;0.60;0.60;;;29.30;94.60;;;;;;10299322;28;20470;-65
2022/08/01 15:43:22;;;;;;;2.38;0.43;;;28.70;94.30;;;;;;10287762;28;20718;-66
2022/08/01 15:48:27;;;;;;;1.00;0.60;;;28.90;94.30;;;;;;10300494;28;20046;-66
2022/08/01 15:53:29;;;;;;;0.77;0.55;;;28.70;94.90;;;;;;10290365;28;20672;-67
2022/08/01 15:58:32;;;;;;;0.95;0.50;;;27.80;95.50;;;;;;10280202;28;20513;-66
2022/08/01 16:03:34;;;;;;;3.65;0.68;;;28.20;95.30;;;;;;10313653;28;20104;-68
2022/08/01 16:08:35;;;;;;;2.03;0.50;;;28.00;95.70;;;;;;10290758;28;20054;-66
2022/08/01 16:13:37;;;;;;;0.70;0.50;;;27.70;95.80;;;;;;10272849;28;20051;-65
2022/08/01 16:18:39;;;;;;;0.82;0.50;;;27.70;95.40;;;;;;10258498;28;20110;-67
2022/08/01 16:23:41;;;;;;;1.13;0.50;;;27.70;90.30;;;;;;10259868;28;20043;-64
2022/08/01 16:28:46;;;;;;;0.85;0.60;;;27.70;90.00;;;;;;10275759;28;20047;-63
2022/08/01 16:33:49;;;;;;;2.17;0.50;;;27.90;89.60;;;;;;10277745;28;20474;-62
2022/08/01 16:38:56;;;;;;;0.85;0.60;;;27.70;90.00;;;;;;10255403;28;20433;-63
2022/08/01 16:43:58;;;;;;;2.05;0.70;;;27.70;90.50;;;;;;10270509;28;20043;-62
2022/08/01 16:49:00;;;;;;;3.45;0.90;;;27.50;95.60;;;;;;10270538;28;20109;-63
2022/08/01 16:54:02;;;;;;;0.80;0.65;;;27.40;95.80;;;;;;10273027;28;20042;-62
2022/08/01 16:59:04;;;;;;;1.00;0.80;;;27.40;96.00;;;;;;10269962;28;20062;-63
2022/08/01 17:04:08;;;;;;;0.70;0.52;;;27.60;96.00;;;;;;10266070;28;20049;-62
2022/08/01 17:09:11;;;;;;;3.20;0.70;;;27.20;96.00;;;;;;10283772;28;20370;-62
2022/08/01 17:14:13;;;;;;;1.25;0.77;;;27.10;96.10;;;;;;10283564;28;20066;-64
2022/08/01 17:19:15;;;;;;;5.60;0.50;;;27.20;96.40;;;;;;10302195;28;20724;-63
2022/08/01 17:24:17;;;;;;;2.15;0.68;;;27.50;96.50;;;;;;10300103;28;20057;-63
2022/08/01 17:29:19;;;;;;;0.90;0.75;;;28.10;96.10;;;;;;10276153;28;20042;-62
2022/08/01 17:34:21;;;;;;;1.35;0.73;;;28.40;95.70;;;;;;10281276;28;20529;-63
2022/08/01 17:39:22;;;;;;;1.25;0.60;;;28.30;95.20;;;;;;10304366;28;20124;-62
2022/08/01 17:44:40;;;;;;;0.73;0.60;;;28.00;95.50;;;;;;10285543;28;20081;-64
2022/08/01 17:49:49;;;;;;;2.05;0.60;;;28.00;95.20;;;;;;10297665;28;20132;-63
2022/08/01 17:54:56;;;;;;;0.70;0.60;;;28.20;94.90;;;;;;10286552;28;20046;-62
2022/08/01 17:59:57;;;;;;;0.65;0.52;;;27.90;95.10;;;;;;10284669;28;20058;-64
2022/08/01 18:04:59;;;;;;;3.47;0.60;;;27.90;94.80;;;;;;10304832;28;20058;-63
2022/08/01 18:10:01;;;;;;;1.48;0.60;;;27.80;95.10;;;;;;10285296;28;20066;-63
2022/08/01 18:15:04;;;;;;;1.80;0.60;;;27.70;95.30;;;;;;10291261;28;20405;-63
2022/08/01 18:20:08;;;;;;;0.90;0.50;;;27.20;90.40;;;;;;10297451;28;20050;-63
2022/08/01 18:25:09;;;;;;;0.93;0.70;;;26.90;90.90;;;;;;10285518;28;20449;-62
2022/08/01 18:30:11;;;;;;;1.58;0.70;;;26.60;91.40;;;;;;10300088;28;20057;-63
2022/08/01 18:35:13;;;;;;;1.90;0.70;;;26.40;96.80;;;;;;10271379;28;20110;-63
2022/08/01 18:40:15;;;;;;;1.02;0.90;;;26.10;97.20;;;;;;10284841;28;20054;-63
2022/08/01 18:45:23;;;;;;;0.68;0.55;;;25.90;97.80;;;;;;10276772;28;20051;-63
2022/08/01 18:50:25;;;;;;;1.10;0.75;;;25.70;98.20;;;;;;10288813;28;20104;-63
2022/08/01 18:55:27;;;;;;;1.88;0.60;;;25.60;98.20;;;;;;10296976;28;20061;-63
2022/08/01 19:00:29;;;;;;;3.80;0.60;;;25.50;98.50;;;;;;10306296;28;20109;-62
2022/08/01 19:05:31;;;;;;;2.30;0.70;;;25.50;98.60;;;;;;10293492;28;20053;-62
2022/08/01 19:10:38;;;;;;;0.85;0.60;;;25.40;98.60;;;;;;10291329;28;20109;-65
2022/08/01 19:15:40;;;;;;;0.82;0.70;;;25.30;98.70;;;;;;10295265;28;20042;-60
2022/08/01 19:20:43;;;;;;;4.15;0.70;;;25.20;99.00;;;;;;10304329;28;20409;-60
2022/08/01 19:25:45;;;;;;;2.28;0.60;;;25.00;99.30;;;;;;10310472;28;20054;-59
2022/08/01 19:30:59;;;;;;;1.52;0.60;;;24.90;99.60;;;;;;10298809;28;20042;-60
2022/08/01 19:36:00;;;;;;;1.10;0.55;;;24.80;99.90;;;;;;10302273;28;20042;-59
2022/08/01 19:41:03;;;;;;;0.98;0.52;;;24.60;99.90;;;;;;10302767;28;20046;-60
2022/08/01 19:46:05;;;;;;;5.40;0.65;;;24.60;99.90;;;;;;10296619;28;20050;-59
2022/08/01 19:51:19;;;;;;;3.22;0.60;;;24.50;99.90;;;;;;10303598;28;20053;-60
2022/08/01 19:56:24;;;;;;;1.17;0.55;;;24.50;99.90;;;;;;10307553;28;20061;-59
2022/08/01 20:01:26;;;;;;;0.88;0.60;;;24.40;99.90;;;;;;10282940;28;20047;-61
2022/08/01 20:06:28;;;;;;;4.03;0.63;;;24.40;99.90;;;;;;10299487;28;20050;-60
2022/08/01 20:11:30;;;;;;;0.60;0.40;;;24.40;99.90;;;;;;10312371;28;20185;-60
2022/08/01 20:16:32;;;;;;;0.80;0.40;;;24.30;99.90;;;;;;10309966;28;20452;-60
2022/08/01 20:21:35;;;;;;;2.13;0.50;;;24.20;99.90;;;;;;10297611;28;20133;-59
2022/08/01 20:26:38;;;;;;;0.85;0.40;;;24.10;99.90;;;;;;10302103;28;20058;-59
2022/08/01 20:31:46;;;;;;;0.50;0.40;;;24.00;99.90;;;;;;10306327;28;20105;-58
2022/08/01 20:36:50;;;;;;;2.92;0.30;;;23.90;99.90;;;;;;10300359;28;20042;-59
2022/08/01 20:41:58;;;;;;;1.15;0.40;;;23.80;99.90;;;;;;10298558;28;20101;-58
2022/08/01 20:47:03;;;;;;;0.80;0.40;;;23.60;99.90;;;;;;10293264;28;20050;-60
2022/08/01 20:52:05;;;;;;;0.52;0.40;;;23.50;99.90;;;;;;10291563;28;20158;-59
2022/08/01 20:57:25;;;;;;;0.60;0.40;;;23.40;99.90;;;;;;10299044;28;20138;-59
2022/08/01 21:02:47;;;;;;;1.08;0.40;;;23.30;99.90;;;;;;10299298;28;20073;-59
2022/08/01 21:08:03;;;;;;;0.68;0.30;;;23.10;99.90;;;;;;10308938;28;20405;-59
2022/08/01 21:13:11;;;;;;;0.30;0.20;;;23.00;99.90;;;;;;10292311;28;20055;-59
2022/08/01 21:18:29;;;;;;;1.13;0.30;;;22.90;99.90;;;;;;10299322;28;20511;-59
2022/08/01 21:23:42;;;;;;;0.50;0.40;;;22.80;99.90;;;;;;10303071;28;20049;-59
2022/08/01 21:28:45;;;;;;;3.75;0.30;;;22.70;99.90;;;;;;10308758;28;20077;-59
2022/08/01 21:34:02;;;;;;;0.35;0.30;;;22.60;99.90;;;;;;10296908;28;20054;-59
2022/08/01 21:39:06;;;;;;;0.45;0.40;;;22.50;99.90;;;;;;10310102;28;20497;-59
2022/08/01 21:44:13;;;;;;;0.50;0.25;;;22.40;99.90;;;;;;10311602;28;20042;-59
2022/08/01 21:49:15;;;;;;;1.08;0.30;;;22.30;99.90;;;;;;10311152;28;20050;-60
2022/08/01 21:54:22;;;;;;;1.52;0.40;;;22.20;99.90;;;;;;10305045;28;20472;-60
2022/08/01 21:59:31;;;;;;;0.40;0.30;;;22.10;99.90;;;;;;10290238;28;20054;-59
2022/08/01 22:04:38;;;;;;;1.75;0.40;;;22.10;99.90;;;;;;10290660;28;20035;-60
2022/08/01 22:09:44;;;;;;;0.45;0.40;;;22.00;99.90;;;;;;10287638;28;20089;-59
2022/08/01 22:14:48;;;;;;;0.55;0.50;;;21.90;99.90;;;;;;10297371;28;20046;-60
2022/08/01 22:19:55;;;;;;;0.40;0.32;;;21.90;99.90;;;;;;10303095;28;20043;-59
2022/08/01 22:24:57;;;;;;;;;;;21.80;99.90;;;;;;10304893;28;20046;-59
2022/08/01 22:30:06;;;;;;;0.30;0.30;;;21.70;99.90;;;;;;10296582;28;20340;-59
2022/08/01 22:35:11;;;;;;;1.67;0.40;;;21.60;99.90;;;;;;10297997;28;20046;-60
2022/08/01 22:40:14;;;;;;;1.08;0.40;;;21.60;99.90;;;;;;10292528;28;20394;-60
2022/08/01 22:45:23;;;;;;;0.77;0.40;;;21.50;99.90;;;;;;10288459;28;20121;-60
2022/08/01 22:50:36;;;;;;;0.50;0.40;;;21.40;99.90;;;;;;10297756;28;20393;-60
2022/08/01 22:55:44;;;;;;;0.43;0.32;;;21.30;99.90;;;;;;10303226;28;20046;-59
2022/08/01 23:01:01;;;;;;;0.40;0.38;;;21.10;99.90;;;;;;10300926;28;20034;-59
2022/08/01 23:06:37;;;;;;;0.57;0.40;;;21.00;99.90;;;;;;10302646;28;20050;-59
2022/08/01 23:11:38;;;;;;;0.32;0.30;;;20.90;99.90;;;;;;10299358;28;20054;-60
2022/08/01 23:16:41;;;;;;;2.05;0.40;;;20.80;99.90;;;;;;10300765;28;20465;-59
2022/08/01 23:21:45;;;;;;;1.15;0.40;;;20.70;99.90;;;;;;10305613;28;20046;-60
2022/08/01 23:26:49;;;;;;;0.73;0.30;;;20.60;99.90;;;;;;10293743;28;20465;-58
2022/08/01 23:31:50;;;;;;;0.47;0.35;;;20.50;99.90;;;;;;10292966;28;20050;-58
2022/08/01 23:37:04;;;;;;;1.05;0.40;;;20.30;99.90;;;;;;10285801;28;20046;-58
2022/08/01 23:42:06;;;;;;;0.77;0.45;;;20.20;99.90;;;;;;10294639;28;20512;-58
2022/08/01 23:47:08;;;;;;;0.57;0.38;;;20.20;99.90;;;;;;10306476;28;20089;-58
2022/08/01 23:52:15;;;;;;;;;;;20.20;99.90;;;;;;10293557;28;20059;-59
2022/08/01 23:57:21;;;;;;;2.47;0.57;;;20.10;99.90;;;;;;10309557;28;19922;-59
